sensor_id;sensor_type;location;lat;lon;timestamp;temperature;humidity
26182;DHT22;13927;51.534;11.866;2022-12-07T00:01:07;1.60;99.90
26182;DHT22;13927;51.534;11.866;2022-12-07T00:03:34;1.60;99.90
26182;DHT22;13927;51.534;11.866;2022-12-07T00:06:00;1.60;99.90
26182;DHT22;13927;51.534;11.866;2022-12-07T00:08:26;1.60;99.90
26182;DHT22;13927;51.534;11.866;2022-12-07T00:10:52;1.70;99.90
26182;DHT22;13927;51.534;11.866;2022-12-07T00:13:17;1.70;99.90
26182;DHT22;13927;51.534;11.866;2022-12-07T00:15:43;1.70;99.90
26182;DHT22;13927;51.534;11.866;2022-12-07T00:18:09;1.80;99.90
26182;DHT22;13927;51.534;11.866;2022-12-07T00:20:35;1.80;99.90
26182;DHT22;13927;51.534;11.866;2022-12-07T00:23:01;1.80;99.90
26182;DHT22;13927;51.534;11.866;2022-12-07T00:25:26;1.80;99.90
26182;DHT22;13927;51.534;11.866;2022-12-07T00:27:52;1.80;99.90
26182;DHT22;13927;51.534;11.866;2022-12-07T00:30:20;1.80;99.90
26182;DHT22;13927;51.534;11.866;2022-12-07T00:32:46;1.80;99.90
26182;DHT22;13927;51.534;11.866;2022-12-07T00:35:12;1.80;99.90
26182;DHT22;13927;51.534;11.866;2022-12-07T00:37:38;1.80;99.90
26182;DHT22;13927;51.534;11.866;2022-12-07T00:40:04;1.80;99.90
26182;DHT22;13927;51.534;11.866;2022-12-07T00:42:30;1.80;99.90
26182;DHT22;13927;51.534;11.866;2022-12-07T00:44:56;1.80;99.90
26182;DHT22;13927;51.534;11.866;2022-12-07T00:47:22;1.80;99.90
26182;DHT22;13927;51.534;11.866;2022-12-07T00:49:47;1.80;99.90
26182;DHT22;13927;51.534;11.866;2022-12-07T00:52:13;1.80;99.90
26182;DHT22;13927;51.534;11.866;2022-12-07T00:54:39;1.70;99.90
26182;DHT22;13927;51.534;11.866;2022-12-07T00:57:05;1.70;99.90
26182;DHT22;13927;51.534;11.866;2022-12-07T00:59:31;1.70;99.90
26182;DHT22;13927;51.534;11.866;2022-12-07T01:01:57;1.70;99.90
26182;DHT22;13927;51.534;11.866;2022-12-07T01:04:23;1.70;99.90
26182;DHT22;13927;51.534;11.866;2022-12-07T01:06:49;1.70;99.90
26182;DHT22;13927;51.534;11.866;2022-12-07T01:09:15;1.60;99.90
26182;DHT22;13927;51.534;11.866;2022-12-07T01:11:41;1.60;99.90
26182;DHT22;13927;51.534;11.866;2022-12-07T01:14:06;1.60;99.90
26182;DHT22;13927;51.534;11.866;2022-12-07T01:16:32;1.60;99.90
26182;DHT22;13927;51.534;11.866;2022-12-07T01:18:59;1.50;99.90
26182;DHT22;13927;51.534;11.866;2022-12-07T01:21:29;1.50;99.90
26182;DHT22;13927;51.534;11.866;2022-12-07T01:24:00;1.50;99.90
26182;DHT22;13927;51.534;11.866;2022-12-07T01:26:25;1.50;99.90
26182;DHT22;13927;51.534;11.866;2022-12-07T01:28:51;1.50;99.90
26182;DHT22;13927;51.534;11.866;2022-12-07T01:31:21;1.50;99.90
26182;DHT22;13927;51.534;11.866;2022-12-07T01:33:48;1.50;99.90
26182;DHT22;13927;51.534;11.866;2022-12-07T01:36:22;1.50;99.90
26182;DHT22;13927;51.534;11.866;2022-12-07T01:38:49;1.40;99.90
26182;DHT22;13927;51.534;11.866;2022-12-07T01:41:17;1.40;99.90
26182;DHT22;13927;51.534;11.866;2022-12-07T01:46:47;1.40;99.90
26182;DHT22;13927;51.534;11.866;2022-12-07T01:52:37;1.40;99.90
26182;DHT22;13927;51.534;11.866;2022-12-07T01:54:46;1.40;99.90
26182;DHT22;13927;51.534;11.866;2022-12-07T01:57:13;1.30;99.90
26182;DHT22;13927;51.534;11.866;2022-12-07T01:59:40;1.30;99.90
26182;DHT22;13927;51.534;11.866;2022-12-07T02:02:08;1.30;99.90
26182;DHT22;13927;51.534;11.866;2022-12-07T02:04:38;1.40;99.90
26182;DHT22;13927;51.534;11.866;2022-12-07T02:07:04;1.40;99.90
26182;DHT22;13927;51.534;11.866;2022-12-07T02:09:30;1.50;99.90
26182;DHT22;13927;51.534;11.866;2022-12-07T02:11:56;1.50;99.90
26182;DHT22;13927;51.534;11.866;2022-12-07T02:14:21;1.50;99.90
26182;DHT22;13927;51.534;11.866;2022-12-07T02:28:34;1.70;99.90
26182;DHT22;13927;51.534;11.866;2022-12-07T02:31:03;1.80;99.90
26182;DHT22;13927;51.534;11.866;2022-12-07T02:33:43;1.80;99.90
26182;DHT22;13927;51.534;11.866;2022-12-07T02:36:34;1.90;99.90
26182;DHT22;13927;51.534;11.866;2022-12-07T02:39:07;1.90;99.90
26182;DHT22;13927;51.534;11.866;2022-12-07T02:41:42;1.90;99.90
26182;DHT22;13927;51.534;11.866;2022-12-07T02:44:12;2.00;99.90
26182;DHT22;13927;51.534;11.866;2022-12-07T02:46:44;2.00;99.90
26182;DHT22;13927;51.534;11.866;2022-12-07T02:49:13;2.00;99.90
26182;DHT22;13927;51.534;11.866;2022-12-07T02:51:43;2.00;99.90
26182;DHT22;13927;51.534;11.866;2022-12-07T02:54:11;2.00;99.90
26182;DHT22;13927;51.534;11.866;2022-12-07T03:13:07;2.30;99.90
26182;DHT22;13927;51.534;11.866;2022-12-07T03:15:49;2.30;99.90
26182;DHT22;13927;51.534;11.866;2022-12-07T03:18:23;2.40;99.90
26182;DHT22;13927;51.534;11.866;2022-12-07T03:20:50;2.40;99.90
26182;DHT22;13927;51.534;11.866;2022-12-07T03:23:18;2.40;99.90
26182;DHT22;13927;51.534;11.866;2022-12-07T03:25:49;2.40;99.90
26182;DHT22;13927;51.534;11.866;2022-12-07T03:28:18;2.50;99.90
26182;DHT22;13927;51.534;11.866;2022-12-07T03:33:11;2.60;99.90
26182;DHT22;13927;51.534;11.866;2022-12-07T03:35:43;2.50;99.90
26182;DHT22;13927;51.534;11.866;2022-12-07T03:43:16;2.60;99.90
26182;DHT22;13927;51.534;11.866;2022-12-07T03:45:44;2.60;99.90
26182;DHT22;13927;51.534;11.866;2022-12-07T03:48:37;2.50;99.90
26182;DHT22;13927;51.534;11.866;2022-12-07T03:51:13;2.60;99.90
26182;DHT22;13927;51.534;11.866;2022-12-07T03:53:59;2.50;99.90
26182;DHT22;13927;51.534;11.866;2022-12-07T03:56:35;2.50;99.90
26182;DHT22;13927;51.534;11.866;2022-12-07T03:59:01;2.50;99.90
26182;DHT22;13927;51.534;11.866;2022-12-07T04:01:27;2.60;99.90
26182;DHT22;13927;51.534;11.866;2022-12-07T04:03:53;2.60;99.90
26182;DHT22;13927;51.534;11.866;2022-12-07T04:06:18;2.60;99.90
26182;DHT22;13927;51.534;11.866;2022-12-07T04:08:44;2.60;99.90
26182;DHT22;13927;51.534;11.866;2022-12-07T04:11:10;2.60;99.90
26182;DHT22;13927;51.534;11.866;2022-12-07T04:13:36;2.60;99.90
26182;DHT22;13927;51.534;11.866;2022-12-07T04:16:22;2.60;99.90
26182;DHT22;13927;51.534;11.866;2022-12-07T04:18:47;2.60;99.90
26182;DHT22;13927;51.534;11.866;2022-12-07T04:21:13;2.70;99.90
26182;DHT22;13927;51.534;11.866;2022-12-07T04:23:38;2.60;99.90
26182;DHT22;13927;51.534;11.866;2022-12-07T04:26:04;2.60;99.90
26182;DHT22;13927;51.534;11.866;2022-12-07T04:28:30;2.60;99.90
26182;DHT22;13927;51.534;11.866;2022-12-07T04:30:55;2.50;99.90
26182;DHT22;13927;51.534;11.866;2022-12-07T04:33:21;2.60;99.90
26182;DHT22;13927;51.534;11.866;2022-12-07T04:35:47;2.60;99.90
26182;DHT22;13927;51.534;11.866;2022-12-07T04:38:13;2.60;99.90
26182;DHT22;13927;51.534;11.866;2022-12-07T04:40:39;2.70;99.90
26182;DHT22;13927;51.534;11.866;2022-12-07T04:43:04;2.70;99.90
26182;DHT22;13927;51.534;11.866;2022-12-07T04:45:30;2.70;99.90
26182;DHT22;13927;51.534;11.866;2022-12-07T04:47:56;2.80;99.90
26182;DHT22;13927;51.534;11.866;2022-12-07T04:50:22;2.80;99.90
26182;DHT22;13927;51.534;11.866;2022-12-07T04:52:48;2.80;99.90
26182;DHT22;13927;51.534;11.866;2022-12-07T04:55:14;2.80;99.90
26182;DHT22;13927;51.534;11.866;2022-12-07T04:57:40;2.80;99.90
26182;DHT22;13927;51.534;11.866;2022-12-07T05:00:06;2.80;99.90
26182;DHT22;13927;51.534;11.866;2022-12-07T05:02:33;2.80;99.90
26182;DHT22;13927;51.534;11.866;2022-12-07T05:04:58;2.80;99.90
26182;DHT22;13927;51.534;11.866;2022-12-07T05:07:24;2.80;99.90
26182;DHT22;13927;51.534;11.866;2022-12-07T05:09:50;2.80;99.90
26182;DHT22;13927;51.534;11.866;2022-12-07T05:12:15;2.80;99.90
26182;DHT22;13927;51.534;11.866;2022-12-07T05:14:41;2.80;99.90
26182;DHT22;13927;51.534;11.866;2022-12-07T05:17:06;2.80;99.90
26182;DHT22;13927;51.534;11.866;2022-12-07T05:19:32;2.80;99.90
26182;DHT22;13927;51.534;11.866;2022-12-07T05:21:58;2.80;99.90
26182;DHT22;13927;51.534;11.866;2022-12-07T05:24:23;2.80;99.90
26182;DHT22;13927;51.534;11.866;2022-12-07T05:26:49;2.80;99.90
26182;DHT22;13927;51.534;11.866;2022-12-07T05:29:15;2.70;99.90
26182;DHT22;13927;51.534;11.866;2022-12-07T05:31:42;2.70;99.90
26182;DHT22;13927;51.534;11.866;2022-12-07T05:34:08;2.70;99.90
26182;DHT22;13927;51.534;11.866;2022-12-07T05:36:36;2.70;99.90
26182;DHT22;13927;51.534;11.866;2022-12-07T05:39:02;2.80;99.90
26182;DHT22;13927;51.534;11.866;2022-12-07T05:41:28;2.70;99.90
26182;DHT22;13927;51.534;11.866;2022-12-07T05:44:12;2.70;99.90
26182;DHT22;13927;51.534;11.866;2022-12-07T05:46:38;2.70;99.90
26182;DHT22;13927;51.534;11.866;2022-12-07T05:49:04;2.60;99.90
26182;DHT22;13927;51.534;11.866;2022-12-07T05:51:30;2.60;99.90
26182;DHT22;13927;51.534;11.866;2022-12-07T05:53:55;2.60;99.90
26182;DHT22;13927;51.534;11.866;2022-12-07T05:56:21;2.50;99.90
26182;DHT22;13927;51.534;11.866;2022-12-07T05:58:48;2.50;99.90
26182;DHT22;13927;51.534;11.866;2022-12-07T06:01:32;2.50;99.90
26182;DHT22;13927;51.534;11.866;2022-12-07T06:03:57;2.50;99.90
26182;DHT22;13927;51.534;11.866;2022-12-07T06:06:23;2.50;99.90
26182;DHT22;13927;51.534;11.866;2022-12-07T06:08:49;2.50;99.90
26182;DHT22;13927;51.534;11.866;2022-12-07T06:11:14;2.50;99.90
26182;DHT22;13927;51.534;11.866;2022-12-07T06:13:59;2.60;99.90
26182;DHT22;13927;51.534;11.866;2022-12-07T06:16:24;2.60;99.90
26182;DHT22;13927;51.534;11.866;2022-12-07T06:18:50;2.60;99.90
26182;DHT22;13927;51.534;11.866;2022-12-07T06:21:15;2.60;99.90
26182;DHT22;13927;51.534;11.866;2022-12-07T06:23:41;2.60;99.90
26182;DHT22;13927;51.534;11.866;2022-12-07T06:26:07;2.60;99.90
26182;DHT22;13927;51.534;11.866;2022-12-07T06:28:32;2.60;99.90
26182;DHT22;13927;51.534;11.866;2022-12-07T06:30:58;2.60;99.90
26182;DHT22;13927;51.534;11.866;2022-12-07T06:33:25;2.60;99.90
26182;DHT22;13927;51.534;11.866;2022-12-07T06:35:51;2.60;99.90
26182;DHT22;13927;51.534;11.866;2022-12-07T06:38:17;2.70;99.90
26182;DHT22;13927;51.534;11.866;2022-12-07T06:40:42;2.70;99.90
26182;DHT22;13927;51.534;11.866;2022-12-07T06:43:08;2.70;99.90
26182;DHT22;13927;51.534;11.866;2022-12-07T06:45:34;2.80;99.90
26182;DHT22;13927;51.534;11.866;2022-12-07T06:47:59;2.80;99.90
26182;DHT22;13927;51.534;11.866;2022-12-07T06:50:25;2.80;99.90
26182;DHT22;13927;51.534;11.866;2022-12-07T06:52:51;2.80;99.90
26182;DHT22;13927;51.534;11.866;2022-12-07T06:55:17;2.80;99.90
26182;DHT22;13927;51.534;11.866;2022-12-07T06:57:42;2.80;99.90
26182;DHT22;13927;51.534;11.866;2022-12-07T07:00:08;2.70;99.90
26182;DHT22;13927;51.534;11.866;2022-12-07T07:02:34;2.70;99.90
26182;DHT22;13927;51.534;11.866;2022-12-07T07:05:00;2.60;99.90
26182;DHT22;13927;51.534;11.866;2022-12-07T07:07:25;2.60;99.90
26182;DHT22;13927;51.534;11.866;2022-12-07T07:09:51;2.60;99.90
26182;DHT22;13927;51.534;11.866;2022-12-07T07:12:17;2.50;99.90
26182;DHT22;13927;51.534;11.866;2022-12-07T07:14:42;2.50;99.90
26182;DHT22;13927;51.534;11.866;2022-12-07T07:17:08;2.50;99.90
26182;DHT22;13927;51.534;11.866;2022-12-07T07:19:34;2.50;99.90
26182;DHT22;13927;51.534;11.866;2022-12-07T07:21:59;2.50;99.90
26182;DHT22;13927;51.534;11.866;2022-12-07T07:24:25;2.50;99.90
26182;DHT22;13927;51.534;11.866;2022-12-07T07:26:51;2.50;99.90
26182;DHT22;13927;51.534;11.866;2022-12-07T07:29:17;2.60;99.90
26182;DHT22;13927;51.534;11.866;2022-12-07T07:31:42;2.60;99.90
26182;DHT22;13927;51.534;11.866;2022-12-07T07:34:08;2.60;99.90
26182;DHT22;13927;51.534;11.866;2022-12-07T07:36:34;2.70;99.90
26182;DHT22;13927;51.534;11.866;2022-12-07T07:38:59;2.70;99.90
26182;DHT22;13927;51.534;11.866;2022-12-07T07:41:25;2.80;99.90
26182;DHT22;13927;51.534;11.866;2022-12-07T07:43:51;2.80;99.90
26182;DHT22;13927;51.534;11.866;2022-12-07T07:46:16;2.90;99.90
26182;DHT22;13927;51.534;11.866;2022-12-07T07:48:42;2.90;99.90
26182;DHT22;13927;51.534;11.866;2022-12-07T07:51:08;2.90;99.90
26182;DHT22;13927;51.534;11.866;2022-12-07T07:53:34;2.90;99.90
26182;DHT22;13927;51.534;11.866;2022-12-07T07:56:00;3.00;99.90
26182;DHT22;13927;51.534;11.866;2022-12-07T07:58:26;3.00;99.90
26182;DHT22;13927;51.534;11.866;2022-12-07T08:00:52;3.00;99.90
26182;DHT22;13927;51.534;11.866;2022-12-07T08:03:19;3.00;99.90
26182;DHT22;13927;51.534;11.866;2022-12-07T08:05:45;3.00;99.90
26182;DHT22;13927;51.534;11.866;2022-12-07T08:08:10;3.10;99.90
26182;DHT22;13927;51.534;11.866;2022-12-07T08:10:36;3.10;99.90
26182;DHT22;13927;51.534;11.866;2022-12-07T08:13:02;3.20;99.90
26182;DHT22;13927;51.534;11.866;2022-12-07T08:15:39;3.20;99.90
26182;DHT22;13927;51.534;11.866;2022-12-07T08:18:06;3.30;99.90
26182;DHT22;13927;51.534;11.866;2022-12-07T08:20:33;3.40;99.90
26182;DHT22;13927;51.534;11.866;2022-12-07T08:22:59;3.40;99.90
26182;DHT22;13927;51.534;11.866;2022-12-07T08:25:26;3.50;99.90
26182;DHT22;13927;51.534;11.866;2022-12-07T08:27:52;3.60;99.90
26182;DHT22;13927;51.534;11.866;2022-12-07T08:30:19;3.60;99.90
26182;DHT22;13927;51.534;11.866;2022-12-07T08:32:45;3.70;99.90
26182;DHT22;13927;51.534;11.866;2022-12-07T08:35:12;3.80;99.90
26182;DHT22;13927;51.534;11.866;2022-12-07T08:37:38;3.90;99.90
26182;DHT22;13927;51.534;11.866;2022-12-07T08:40:04;3.90;99.90
26182;DHT22;13927;51.534;11.866;2022-12-07T08:42:31;3.90;99.90
26182;DHT22;13927;51.534;11.866;2022-12-07T08:45:05;3.90;99.90
26182;DHT22;13927;51.534;11.866;2022-12-07T08:47:31;4.00;99.90
26182;DHT22;13927;51.534;11.866;2022-12-07T08:49:57;4.00;99.90
26182;DHT22;13927;51.534;11.866;2022-12-07T08:52:29;4.00;99.90
26182;DHT22;13927;51.534;11.866;2022-12-07T08:54:56;3.90;99.90
26182;DHT22;13927;51.534;11.866;2022-12-07T08:57:22;3.90;99.90
26182;DHT22;13927;51.534;11.866;2022-12-07T08:59:47;3.90;99.90
26182;DHT22;13927;51.534;11.866;2022-12-07T09:02:13;3.80;99.90
26182;DHT22;13927;51.534;11.866;2022-12-07T09:04:39;3.80;99.90
26182;DHT22;13927;51.534;11.866;2022-12-07T09:07:05;3.70;99.90
26182;DHT22;13927;51.534;11.866;2022-12-07T09:09:31;3.60;99.90
26182;DHT22;13927;51.534;11.866;2022-12-07T09:11:57;3.70;99.90
26182;DHT22;13927;51.534;11.866;2022-12-07T09:14:23;3.70;99.90
26182;DHT22;13927;51.534;11.866;2022-12-07T09:16:48;3.70;99.90
26182;DHT22;13927;51.534;11.866;2022-12-07T09:19:14;3.80;99.90
26182;DHT22;13927;51.534;11.866;2022-12-07T09:21:40;3.80;99.90
26182;DHT22;13927;51.534;11.866;2022-12-07T09:24:05;3.90;99.90
26182;DHT22;13927;51.534;11.866;2022-12-07T09:26:31;3.90;99.90
26182;DHT22;13927;51.534;11.866;2022-12-07T09:28:57;3.90;99.90
26182;DHT22;13927;51.534;11.866;2022-12-07T09:31:22;4.00;99.90
26182;DHT22;13927;51.534;11.866;2022-12-07T09:33:52;4.00;99.90
26182;DHT22;13927;51.534;11.866;2022-12-07T09:36:19;4.10;99.90
26182;DHT22;13927;51.534;11.866;2022-12-07T09:38:45;4.10;99.90
26182;DHT22;13927;51.534;11.866;2022-12-07T09:41:10;4.20;99.90
26182;DHT22;13927;51.534;11.866;2022-12-07T09:43:36;4.30;99.90
26182;DHT22;13927;51.534;11.866;2022-12-07T09:46:04;4.30;99.90
26182;DHT22;13927;51.534;11.866;2022-12-07T09:48:31;4.30;99.90
26182;DHT22;13927;51.534;11.866;2022-12-07T09:51:00;4.40;99.90
26182;DHT22;13927;51.534;11.866;2022-12-07T09:53:27;4.40;99.90
26182;DHT22;13927;51.534;11.866;2022-12-07T09:55:55;4.40;99.90
26182;DHT22;13927;51.534;11.866;2022-12-07T09:58:25;4.40;99.90
26182;DHT22;13927;51.534;11.866;2022-12-07T10:01:08;4.50;99.90
26182;DHT22;13927;51.534;11.866;2022-12-07T10:03:37;4.50;99.90
26182;DHT22;13927;51.534;11.866;2022-12-07T10:06:05;4.50;99.90
26182;DHT22;13927;51.534;11.866;2022-12-07T10:08:31;4.50;99.90
26182;DHT22;13927;51.534;11.866;2022-12-07T10:10:58;4.50;99.90
26182;DHT22;13927;51.534;11.866;2022-12-07T10:13:38;4.60;99.90
26182;DHT22;13927;51.534;11.866;2022-12-07T10:16:06;4.60;99.90
26182;DHT22;13927;51.534;11.866;2022-12-07T10:18:34;4.60;99.90
26182;DHT22;13927;51.534;11.866;2022-12-07T10:23:37;4.80;99.90
26182;DHT22;13927;51.534;11.866;2022-12-07T10:28:51;4.80;99.90
26182;DHT22;13927;51.534;11.866;2022-12-07T10:31:19;4.80;99.90
26182;DHT22;13927;51.534;11.866;2022-12-07T10:36:23;4.80;99.90
26182;DHT22;13927;51.534;11.866;2022-12-07T10:38:53;4.80;99.90
26182;DHT22;13927;51.534;11.866;2022-12-07T10:41:25;4.80;99.90
26182;DHT22;13927;51.534;11.866;2022-12-07T10:43:52;4.70;99.90
26182;DHT22;13927;51.534;11.866;2022-12-07T10:52:11;4.80;99.90
26182;DHT22;13927;51.534;11.866;2022-12-07T11:00:03;4.80;99.90
26182;DHT22;13927;51.534;11.866;2022-12-07T11:11:06;5.10;99.90
26182;DHT22;13927;51.534;11.866;2022-12-07T11:22:05;5.20;99.90
26182;DHT22;13927;51.534;11.866;2022-12-07T11:25:23;5.30;99.90
26182;DHT22;13927;51.534;11.866;2022-12-07T11:27:36;5.60;99.90
26182;DHT22;13927;51.534;11.866;2022-12-07T11:30:10;5.80;99.90
26182;DHT22;13927;51.534;11.866;2022-12-07T11:40:40;6.00;99.90
26182;DHT22;13927;51.534;11.866;2022-12-07T11:43:27;5.90;99.90
26182;DHT22;13927;51.534;11.866;2022-12-07T11:48:47;5.90;99.90
26182;DHT22;13927;51.534;11.866;2022-12-07T11:51:24;5.80;99.90
26182;DHT22;13927;51.534;11.866;2022-12-07T11:53:53;5.80;99.90
26182;DHT22;13927;51.534;11.866;2022-12-07T11:56:21;5.90;99.90
26182;DHT22;13927;51.534;11.866;2022-12-07T11:58:57;5.90;99.90
26182;DHT22;13927;51.534;11.866;2022-12-07T12:06:39;5.90;99.90
26182;DHT22;13927;51.534;11.866;2022-12-07T12:09:21;5.90;99.90
26182;DHT22;13927;51.534;11.866;2022-12-07T12:15:13;5.90;99.90
26182;DHT22;13927;51.534;11.866;2022-12-07T12:20:58;6.00;99.90
26182;DHT22;13927;51.534;11.866;2022-12-07T12:26:00;6.00;99.90
26182;DHT22;13927;51.534;11.866;2022-12-07T12:28:33;6.00;99.90
26182;DHT22;13927;51.534;11.866;2022-12-07T12:33:48;5.90;99.90
26182;DHT22;13927;51.534;11.866;2022-12-07T12:46:48;5.70;99.90
26182;DHT22;13927;51.534;11.866;2022-12-07T12:52:00;5.70;99.90
26182;DHT22;13927;51.534;11.866;2022-12-07T13:13:00;5.40;99.90
26182;DHT22;13927;51.534;11.866;2022-12-07T13:15:48;5.40;99.90
26182;DHT22;13927;51.534;11.866;2022-12-07T13:20:57;5.40;99.90
26182;DHT22;13927;51.534;11.866;2022-12-07T13:28:48;5.30;99.90
26182;DHT22;13927;51.534;11.866;2022-12-07T13:31:30;5.30;99.90
26182;DHT22;13927;51.534;11.866;2022-12-07T13:36:55;5.40;99.90
26182;DHT22;13927;51.534;11.866;2022-12-07T13:39:23;5.40;99.90
26182;DHT22;13927;51.534;11.866;2022-12-07T13:44:19;5.40;99.90
26182;DHT22;13927;51.534;11.866;2022-12-07T13:46:52;5.40;99.90
26182;DHT22;13927;51.534;11.866;2022-12-07T13:49:31;5.40;99.90
26182;DHT22;13927;51.534;11.866;2022-12-07T13:57:22;5.10;99.90
26182;DHT22;13927;51.534;11.866;2022-12-07T13:59:48;5.10;99.90
26182;DHT22;13927;51.534;11.866;2022-12-07T14:02:25;5.10;99.90
26182;DHT22;13927;51.534;11.866;2022-12-07T14:05:05;5.00;99.90
26182;DHT22;13927;51.534;11.866;2022-12-07T14:07:48;4.90;99.90
26182;DHT22;13927;51.534;11.866;2022-12-07T14:10:36;4.90;99.90
26182;DHT22;13927;51.534;11.866;2022-12-07T14:13:03;4.80;99.90
26182;DHT22;13927;51.534;11.866;2022-12-07T14:15:53;4.80;99.90
26182;DHT22;13927;51.534;11.866;2022-12-07T14:18:26;4.80;99.90
26182;DHT22;13927;51.534;11.866;2022-12-07T14:21:04;4.70;99.90
26182;DHT22;13927;51.534;11.866;2022-12-07T14:23:30;4.70;99.90
26182;DHT22;13927;51.534;11.866;2022-12-07T14:26:04;4.60;99.90
26182;DHT22;13927;51.534;11.866;2022-12-07T14:28:37;4.70;99.90
26182;DHT22;13927;51.534;11.866;2022-12-07T14:31:03;4.70;99.90
26182;DHT22;13927;51.534;11.866;2022-12-07T14:33:30;4.60;99.90
26182;DHT22;13927;51.534;11.866;2022-12-07T14:35:55;4.60;99.90
26182;DHT22;13927;51.534;11.866;2022-12-07T14:38:23;4.60;99.90
26182;DHT22;13927;51.534;11.866;2022-12-07T14:40:52;4.60;99.90
26182;DHT22;13927;51.534;11.866;2022-12-07T14:43:19;4.50;99.90
26182;DHT22;13927;51.534;11.866;2022-12-07T14:45:45;4.50;99.90
26182;DHT22;13927;51.534;11.866;2022-12-07T14:48:11;4.40;99.90
26182;DHT22;13927;51.534;11.866;2022-12-07T14:50:39;4.40;99.90
26182;DHT22;13927;51.534;11.866;2022-12-07T14:53:14;4.40;99.90
26182;DHT22;13927;51.534;11.866;2022-12-07T14:55:40;4.30;99.90
26182;DHT22;13927;51.534;11.866;2022-12-07T14:58:10;4.30;99.90
26182;DHT22;13927;51.534;11.866;2022-12-07T15:00:38;4.30;99.90
26182;DHT22;13927;51.534;11.866;2022-12-07T15:03:04;4.30;99.90
26182;DHT22;13927;51.534;11.866;2022-12-07T15:05:30;4.30;99.90
26182;DHT22;13927;51.534;11.866;2022-12-07T15:07:55;4.30;99.90
26182;DHT22;13927;51.534;11.866;2022-12-07T15:10:22;4.30;99.90
26182;DHT22;13927;51.534;11.866;2022-12-07T15:12:48;4.30;99.90
26182;DHT22;13927;51.534;11.866;2022-12-07T15:15:14;4.30;99.90
26182;DHT22;13927;51.534;11.866;2022-12-07T15:17:40;4.30;99.90
26182;DHT22;13927;51.534;11.866;2022-12-07T15:20:08;4.30;99.90
26182;DHT22;13927;51.534;11.866;2022-12-07T15:22:37;4.20;99.90
26182;DHT22;13927;51.534;11.866;2022-12-07T15:25:03;4.00;99.90
26182;DHT22;13927;51.534;11.866;2022-12-07T15:27:31;3.90;99.90
26182;DHT22;13927;51.534;11.866;2022-12-07T15:29:57;3.70;99.90
26182;DHT22;13927;51.534;11.866;2022-12-07T15:32:22;3.70;99.90
26182;DHT22;13927;51.534;11.866;2022-12-07T15:34:48;3.60;99.90
26182;DHT22;13927;51.534;11.866;2022-12-07T15:37:15;3.60;99.90
26182;DHT22;13927;51.534;11.866;2022-12-07T15:39:41;3.50;99.90
26182;DHT22;13927;51.534;11.866;2022-12-07T15:42:07;3.50;99.90
26182;DHT22;13927;51.534;11.866;2022-12-07T15:44:32;3.50;99.90
26182;DHT22;13927;51.534;11.866;2022-12-07T15:47:16;3.50;99.90
26182;DHT22;13927;51.534;11.866;2022-12-07T15:49:42;3.50;99.90
26182;DHT22;13927;51.534;11.866;2022-12-07T15:52:08;3.50;99.90
26182;DHT22;13927;51.534;11.866;2022-12-07T15:54:33;3.50;99.90
26182;DHT22;13927;51.534;11.866;2022-12-07T15:56:59;3.50;99.90
26182;DHT22;13927;51.534;11.866;2022-12-07T15:59:26;3.50;99.90
26182;DHT22;13927;51.534;11.866;2022-12-07T16:01:52;3.50;99.90
26182;DHT22;13927;51.534;11.866;2022-12-07T16:04:18;3.50;99.90
26182;DHT22;13927;51.534;11.866;2022-12-07T16:06:44;3.50;99.90
26182;DHT22;13927;51.534;11.866;2022-12-07T16:09:10;3.50;99.90
26182;DHT22;13927;51.534;11.866;2022-12-07T16:11:35;3.50;99.90
26182;DHT22;13927;51.534;11.866;2022-12-07T16:14:01;3.50;99.90
26182;DHT22;13927;51.534;11.866;2022-12-07T16:16:27;3.50;99.90
26182;DHT22;13927;51.534;11.866;2022-12-07T16:18:53;3.50;99.90
26182;DHT22;13927;51.534;11.866;2022-12-07T16:21:19;3.60;99.90
26182;DHT22;13927;51.534;11.866;2022-12-07T16:23:45;3.60;99.90
26182;DHT22;13927;51.534;11.866;2022-12-07T16:26:12;3.60;99.90
26182;DHT22;13927;51.534;11.866;2022-12-07T16:28:42;3.60;99.90
26182;DHT22;13927;51.534;11.866;2022-12-07T16:31:10;3.60;99.90
26182;DHT22;13927;51.534;11.866;2022-12-07T16:33:38;3.60;99.90
26182;DHT22;13927;51.534;11.866;2022-12-07T16:36:05;3.60;99.90
26182;DHT22;13927;51.534;11.866;2022-12-07T16:38:32;3.60;99.90
26182;DHT22;13927;51.534;11.866;2022-12-07T16:40:58;3.60;99.90
26182;DHT22;13927;51.534;11.866;2022-12-07T16:43:24;3.60;99.90
26182;DHT22;13927;51.534;11.866;2022-12-07T16:45:49;3.50;99.90
26182;DHT22;13927;51.534;11.866;2022-12-07T16:48:15;3.60;99.90
26182;DHT22;13927;51.534;11.866;2022-12-07T16:50:41;3.60;99.90
26182;DHT22;13927;51.534;11.866;2022-12-07T16:53:08;3.60;99.90
26182;DHT22;13927;51.534;11.866;2022-12-07T16:55:37;3.60;99.90
26182;DHT22;13927;51.534;11.866;2022-12-07T16:58:03;3.60;99.90
26182;DHT22;13927;51.534;11.866;2022-12-07T17:00:29;3.60;99.90
26182;DHT22;13927;51.534;11.866;2022-12-07T17:02:55;3.60;99.90
26182;DHT22;13927;51.534;11.866;2022-12-07T17:05:21;3.60;99.90
26182;DHT22;13927;51.534;11.866;2022-12-07T17:07:46;3.60;99.90
26182;DHT22;13927;51.534;11.866;2022-12-07T17:10:12;3.50;99.90
26182;DHT22;13927;51.534;11.866;2022-12-07T17:12:38;3.50;99.90
26182;DHT22;13927;51.534;11.866;2022-12-07T17:15:03;3.50;99.90
26182;DHT22;13927;51.534;11.866;2022-12-07T17:17:42;3.40;99.90
26182;DHT22;13927;51.534;11.866;2022-12-07T17:20:24;3.40;99.90
26182;DHT22;13927;51.534;11.866;2022-12-07T17:22:51;3.40;99.90
26182;DHT22;13927;51.534;11.866;2022-12-07T17:25:17;3.30;99.90
26182;DHT22;13927;51.534;11.866;2022-12-07T17:27:43;3.30;99.90
26182;DHT22;13927;51.534;11.866;2022-12-07T17:30:09;3.20;99.90
26182;DHT22;13927;51.534;11.866;2022-12-07T17:32:36;3.20;99.90
26182;DHT22;13927;51.534;11.866;2022-12-07T17:35:02;3.20;99.90
26182;DHT22;13927;51.534;11.866;2022-12-07T17:37:28;3.20;99.90
26182;DHT22;13927;51.534;11.866;2022-12-07T17:39:55;3.20;99.90
26182;DHT22;13927;51.534;11.866;2022-12-07T17:42:25;3.20;99.90
26182;DHT22;13927;51.534;11.866;2022-12-07T17:45:12;3.20;99.90
26182;DHT22;13927;51.534;11.866;2022-12-07T17:47:38;3.20;99.90
26182;DHT22;13927;51.534;11.866;2022-12-07T17:50:04;3.20;99.90
26182;DHT22;13927;51.534;11.866;2022-12-07T17:52:31;3.10;99.90
26182;DHT22;13927;51.534;11.866;2022-12-07T17:55:15;3.10;99.90
26182;DHT22;13927;51.534;11.866;2022-12-07T17:57:41;3.10;99.90
26182;DHT22;13927;51.534;11.866;2022-12-07T18:00:07;3.20;99.90
26182;DHT22;13927;51.534;11.866;2022-12-07T18:02:34;3.20;99.90
26182;DHT22;13927;51.534;11.866;2022-12-07T18:04:59;3.20;99.90
26182;DHT22;13927;51.534;11.866;2022-12-07T18:07:25;3.20;99.90
26182;DHT22;13927;51.534;11.866;2022-12-07T18:09:50;3.20;99.90
26182;DHT22;13927;51.534;11.866;2022-12-07T18:12:16;3.20;99.90